createdAt,value
2018-08-17T00:00:54.897Z,100309.65
2018-08-17T00:03:23.221Z,100315.70
2018-08-17T00:05:51.571Z,100314.96
2018-08-17T00:08:19.914Z,100308.65
2018-08-17T00:10:48.285Z,100305.86
2018-08-17T00:13:16.608Z,100305.86
2018-08-17T00:15:44.978Z,100310.59
2018-08-17T00:18:13.380Z,100306.22
2018-08-17T00:20:41.883Z,100303.34
2018-08-17T00:23:10.295Z,100304.93
2018-08-17T00:25:38.674Z,100310.95
2018-08-17T00:28:07.074Z,100303.91
2018-08-17T00:30:35.513Z,100304.36
2018-08-17T00:33:04.218Z,100304.55
2018-08-17T00:35:32.648Z,100305.11
2018-08-17T00:38:01.006Z,100306.96
2018-08-17T00:40:29.348Z,100296.20
2018-08-17T00:42:57.754Z,100298.41
2018-08-17T00:45:26.143Z,100290.34
2018-08-17T00:47:54.542Z,100297.12
2018-08-17T00:50:22.908Z,100299.72
2018-08-17T00:52:51.257Z,100301.48
2018-08-17T00:55:19.635Z,100303.98
2018-08-17T00:57:47.990Z,100299.69
2018-08-17T01:00:16.339Z,100308.08
2018-08-17T01:02:44.776Z,100306.86
2018-08-17T01:05:13.132Z,100308.70
2018-08-17T01:07:41.728Z,100309.62
2018-08-17T01:10:10.230Z,100315.47
2018-08-17T01:12:38.638Z,100319.53
2018-08-17T01:15:07.371Z,100320.95
2018-08-17T01:17:35.707Z,100313.51
2018-08-17T01:20:04.727Z,100323.43
2018-08-17T01:22:33.134Z,100321.18
2018-08-17T01:25:01.557Z,100319.05
2018-08-17T01:27:29.940Z,100318.10
2018-08-17T01:29:58.349Z,100319.20
2018-08-17T01:32:26.956Z,100321.72
2018-08-17T01:34:55.365Z,100317.83
2018-08-17T01:37:23.715Z,100314.28
2018-08-17T01:39:52.140Z,100307.81
2018-08-17T01:42:20.535Z,100307.77
2018-08-17T01:44:48.876Z,100304.63
2018-08-17T01:47:17.260Z,100303.80
2018-08-17T01:49:45.716Z,100303.59
2018-08-17T01:52:14.138Z,100304.34
2018-08-17T01:54:42.474Z,100308.92
2018-08-17T01:57:10.882Z,100302.44
2018-08-17T01:59:39.251Z,100300.78
2018-08-17T02:02:07.706Z,100297.09
2018-08-17T02:04:36.106Z,100300.44
2018-08-17T02:07:04.570Z,100299.89
2018-08-17T02:09:33.122Z,100300.44
2018-08-17T02:12:01.461Z,100297.35
2018-08-17T02:14:29.801Z,100298.83
2018-08-17T02:16:58.145Z,100300.16
2018-08-17T02:19:26.601Z,100298.39
2018-08-17T02:21:54.980Z,100298.29
2018-08-17T02:24:23.400Z,100298.55
2018-08-17T02:26:51.783Z,100297.80
2018-08-17T02:29:20.150Z,100300.44
2018-08-17T02:31:48.499Z,100297.66
2018-08-17T02:34:16.902Z,100298.75
2018-08-17T02:36:45.326Z,100292.34
2018-08-17T02:39:13.708Z,100295.30
2018-08-17T02:41:42.176Z,100291.88
2018-08-17T02:44:10.647Z,100290.51
2018-08-17T02:46:38.988Z,100292.67
2018-08-17T02:49:07.396Z,100294.37
2018-08-17T02:51:35.769Z,100298.66
2018-08-17T02:54:04.186Z,100291.64
2018-08-17T02:56:32.638Z,100291.73
2018-08-17T02:59:01.027Z,100296.92
2018-08-17T03:01:29.408Z,100294.70
2018-08-17T03:03:57.828Z,100297.56
2018-08-17T03:06:26.201Z,100300.05
2018-08-17T03:08:54.613Z,100299.97
2018-08-17T03:11:23.004Z,100308.50
2018-08-17T03:13:51.384Z,100306.33
2018-08-17T03:16:19.730Z,100301.21
2018-08-17T03:18:48.081Z,100310.21
2018-08-17T03:21:16.428Z,100307.09
2018-08-17T03:23:44.784Z,100314.25
2018-08-17T03:26:13.133Z,100306.25
2018-08-17T03:28:41.507Z,100310.98
2018-08-17T03:31:09.900Z,100315.01
2018-08-17T03:33:38.326Z,100310.59
2018-08-17T03:36:06.703Z,100308.70
2018-08-17T03:38:35.095Z,100311.58
2018-08-17T03:41:03.559Z,100317.00
2018-08-17T03:43:31.988Z,100323.72
2018-08-17T03:46:00.354Z,100319.59
2018-08-17T03:48:28.710Z,100329.89
2018-08-17T03:50:57.072Z,100331.08
2018-08-17T03:53:25.455Z,100332.02
2018-08-17T03:55:53.844Z,100327.36
2018-08-17T03:58:22.241Z,100338.63
2018-08-17T04:00:50.702Z,100344.87
2018-08-17T04:03:19.164Z,100343.34
2018-08-17T04:05:47.588Z,100350.21
2018-08-17T04:08:15.976Z,100347.78
2018-08-17T04:10:44.757Z,100347.09
2018-08-17T04:13:13.141Z,100352.73
2018-08-17T04:15:41.546Z,100357.22
2018-08-17T04:18:10.362Z,100360.80
2018-08-17T04:20:38.940Z,100364.29
2018-08-17T04:23:07.413Z,100358.52
2018-08-17T04:25:35.830Z,100364.51
2018-08-17T04:28:04.184Z,100369.36
2018-08-17T04:30:32.601Z,100369.09
2018-08-17T04:33:01.027Z,100374.05
2018-08-17T04:35:29.729Z,100374.22
2018-08-17T04:37:58.052Z,100378.77
2018-08-17T04:40:26.491Z,100384.11
2018-08-17T04:42:54.909Z,100373.89
2018-08-17T04:45:23.552Z,100385.78
2018-08-17T04:47:51.951Z,100381.59
2018-08-17T04:50:20.362Z,100384.19
2018-08-17T04:52:48.771Z,100380.00
2018-08-17T04:55:17.154Z,100378.47
2018-08-17T04:57:45.548Z,100383.75
2018-08-17T05:00:13.941Z,100388.84
2018-08-17T05:02:42.309Z,100384.34
2018-08-17T05:05:10.683Z,100378.23
2018-08-17T05:07:39.095Z,100383.11
2018-08-17T05:10:08.340Z,100388.70
2018-08-17T05:12:36.677Z,100386.34
2018-08-17T05:15:05.608Z,100385.56
2018-08-17T05:17:33.980Z,100385.33
2018-08-17T05:20:02.399Z,100394.09
2018-08-17T05:22:30.794Z,100390.55
2018-08-17T05:24:59.120Z,100397.02
2018-08-17T05:27:27.520Z,100396.19
2018-08-17T05:29:55.992Z,100399.84
2018-08-17T05:32:24.398Z,100398.52
2018-08-17T05:34:52.812Z,100410.80
2018-08-17T05:37:21.228Z,100413.22
2018-08-17T05:39:49.698Z,100407.78
2018-08-17T05:42:18.003Z,100404.66
2018-08-17T05:44:46.403Z,100400.33
2018-08-17T05:47:14.757Z,100402.96
2018-08-17T05:49:43.627Z,100402.31
2018-08-17T05:52:12.138Z,100408.84
2018-08-17T05:54:40.509Z,100413.52
2018-08-17T05:57:08.882Z,100416.75
2018-08-17T05:59:37.266Z,100413.06
2018-08-17T06:02:05.721Z,100415.47
2018-08-17T06:04:34.075Z,100412.03
2018-08-17T06:07:02.489Z,100420.36
2018-08-17T06:09:30.981Z,100418.20
2018-08-17T06:11:59.361Z,100411.81
2018-08-17T06:14:27.752Z,100411.90
2018-08-17T06:16:56.104Z,100421.92
2018-08-17T06:19:24.488Z,100416.14
2018-08-17T06:21:52.889Z,100423.63
2018-08-17T06:24:21.320Z,100428.21
2018-08-17T06:26:49.735Z,100433.03
2018-08-17T06:29:48.615Z,100436.05
2018-08-17T06:32:16.989Z,100446.25
2018-08-17T06:34:45.439Z,100449.78
2018-08-17T06:37:13.912Z,100450.94
2018-08-17T06:39:42.257Z,100457.20
2018-08-17T06:42:10.643Z,100455.02
2018-08-17T06:44:39.054Z,100453.83
2018-08-17T06:47:07.410Z,100454.14
2018-08-17T06:49:35.727Z,100459.12
2018-08-17T06:52:04.129Z,100462.61
2018-08-17T06:54:32.548Z,100463.27
2018-08-17T06:57:00.986Z,100471.78
2018-08-17T06:59:29.267Z,100468.27
2018-08-17T07:01:57.647Z,100478.83
2018-08-17T07:04:26.080Z,100472.31
2018-08-17T07:06:54.452Z,100469.45
2018-08-17T07:09:22.950Z,100473.81
2018-08-17T07:11:51.268Z,100477.58
2018-08-17T07:14:19.652Z,100474.17
2018-08-17T07:16:48.067Z,100483.52
2018-08-17T07:19:16.543Z,100477.51
2018-08-17T07:21:45.023Z,100480.38
2018-08-17T07:24:13.411Z,100479.48
2018-08-17T07:26:41.883Z,100477.20
2018-08-17T07:29:10.376Z,100487.48
2018-08-17T07:31:38.799Z,100489.98
2018-08-17T07:34:07.300Z,100489.77
2018-08-17T07:36:35.703Z,100494.07
2018-08-17T07:39:05.318Z,100495.72
2018-08-17T07:41:33.699Z,100492.92
2018-08-17T07:44:02.328Z,100495.92
2018-08-17T07:46:30.752Z,100496.56
2018-08-17T07:48:59.129Z,100499.31
2018-08-17T07:51:27.500Z,100497.36
2018-08-17T07:53:55.861Z,100502.45
2018-08-17T07:56:24.237Z,100500.73
2018-08-17T07:58:52.584Z,100501.53
2018-08-17T08:01:20.976Z,100502.70
2018-08-17T08:03:49.327Z,100501.49
2018-08-17T08:06:17.764Z,100499.33
2018-08-17T08:08:46.158Z,100497.77
2018-08-17T08:11:14.552Z,100500.77
2018-08-17T08:13:43.000Z,100505.79
2018-08-17T08:16:11.498Z,100511.02
2018-08-17T08:18:39.838Z,100523.42
2018-08-17T08:21:08.283Z,100521.43
2018-08-17T08:23:36.669Z,100530.74
2018-08-17T08:26:05.164Z,100523.36
2018-08-17T08:28:33.545Z,100516.27
2018-08-17T08:31:01.986Z,100532.00
2018-08-17T08:33:30.468Z,100526.38
2018-08-17T08:35:58.887Z,100531.25
2018-08-17T08:38:27.308Z,100533.44
2018-08-17T08:40:55.679Z,100532.92
2018-08-17T08:43:24.119Z,100542.95
2018-08-17T08:45:52.932Z,100543.80
2018-08-17T08:48:21.545Z,100542.77
2018-08-17T08:50:49.983Z,100543.14
2018-08-17T08:53:18.365Z,100544.21
2018-08-17T08:55:47.004Z,100549.49
2018-08-17T08:58:15.385Z,100549.97
2018-08-17T09:00:43.796Z,100550.56
2018-08-17T09:03:12.182Z,100545.93
2018-08-17T09:05:40.588Z,100549.36
2018-08-17T09:08:09.130Z,100543.25
2018-08-17T09:10:37.551Z,100550.48
2018-08-17T09:13:06.014Z,100554.66
2018-08-17T09:15:34.381Z,100562.56
2018-08-17T09:18:02.779Z,100568.77
2018-08-17T09:20:31.170Z,100569.83
2018-08-17T09:22:59.529Z,100572.77
2018-08-17T09:25:27.884Z,100573.32
2018-08-17T09:27:56.291Z,100567.05
2018-08-17T09:30:24.633Z,100572.13
2018-08-17T09:32:53.109Z,100567.14
2018-08-17T09:35:21.464Z,100568.95
2018-08-17T09:37:49.862Z,100572.86
2018-08-17T09:40:18.261Z,100568.20
2018-08-17T09:42:46.603Z,100575.23
2018-08-17T09:45:14.972Z,100575.60
2018-08-17T09:47:43.611Z,100566.33
2018-08-17T09:50:13.630Z,100568.77
2018-08-17T09:52:42.004Z,100563.29
2018-08-17T09:55:10.402Z,100559.82
2018-08-17T09:57:38.908Z,100564.70
2018-08-17T10:00:08.796Z,100566.73
2018-08-17T10:02:42.383Z,100570.20
2018-08-17T10:05:15.999Z,100565.67
2018-08-17T10:07:49.484Z,100565.17
2018-08-17T10:10:22.382Z,100566.75
2018-08-17T10:12:51.553Z,100565.54
2018-08-17T10:15:20.050Z,100567.45
2018-08-17T10:17:48.417Z,100558.51
2018-08-17T10:20:19.003Z,100564.23
2018-08-17T10:22:47.448Z,100565.89
2018-08-17T10:25:19.389Z,100561.47
2018-08-17T10:27:50.105Z,100563.03
2018-08-17T10:30:19.550Z,100570.53
2018-08-17T10:33:04.342Z,100567.20
2018-08-17T10:35:36.515Z,100565.55
2018-08-17T10:38:06.334Z,100567.31
2018-08-17T10:40:34.682Z,100559.70
2018-08-17T10:43:04.589Z,100553.26
2018-08-17T10:45:33.355Z,100547.75
2018-08-17T10:48:01.744Z,100553.70
2018-08-17T10:50:32.492Z,100549.93
2018-08-17T10:53:02.026Z,100546.09
2018-08-17T10:55:38.625Z,100550.66
2018-08-17T10:58:07.547Z,100547.41
2018-08-17T11:00:36.010Z,100547.86
2018-08-17T11:03:04.384Z,100536.09
2018-08-17T11:05:32.771Z,100533.81
2018-08-17T11:08:01.147Z,100525.30
2018-08-17T11:10:29.595Z,100526.91
2018-08-17T11:12:58.000Z,100521.73
2018-08-17T11:15:26.370Z,100528.68
2018-08-17T11:17:54.758Z,100524.91
2018-08-17T11:20:23.168Z,100517.37
2018-08-17T11:22:51.575Z,100520.70
2018-08-17T11:25:20.132Z,100507.63
2018-08-17T11:27:49.536Z,100509.44
2018-08-17T11:30:17.975Z,100504.79
2018-08-17T11:32:46.413Z,100500.63
2018-08-17T11:35:14.809Z,100496.37
2018-08-17T11:37:43.270Z,100498.09
2018-08-17T11:40:12.423Z,100501.26
2018-08-17T11:42:44.625Z,100500.20
2018-08-17T11:45:15.416Z,100504.02
2018-08-17T11:47:44.461Z,100507.33
2018-08-17T11:50:14.682Z,100510.78
2018-08-17T11:52:49.073Z,100510.78
2018-08-17T11:55:18.142Z,100507.34
2018-08-17T11:57:46.774Z,100504.86
2018-08-17T12:00:15.238Z,100503.11
2018-08-17T12:02:44.042Z,100508.45
2018-08-17T12:05:12.566Z,100510.38
2018-08-17T12:07:42.046Z,100508.55
2018-08-17T12:10:10.464Z,100508.24
2018-08-17T12:12:40.003Z,100509.34
2018-08-17T12:15:09.633Z,100512.09
2018-08-17T12:17:37.983Z,100516.98
2018-08-17T12:20:06.376Z,100520.06
2018-08-17T12:22:34.719Z,100514.38
2018-08-17T12:25:03.218Z,100517.19
2018-08-17T12:27:31.962Z,100517.77
2018-08-17T12:30:00.421Z,100504.43
2018-08-17T12:32:28.819Z,100512.92
2018-08-17T12:34:57.194Z,100513.92
2018-08-17T12:37:25.544Z,100513.42
2018-08-17T12:39:53.917Z,100512.81
2018-08-17T12:42:22.271Z,100501.33
2018-08-17T12:44:50.875Z,100502.58
2018-08-17T12:47:19.318Z,100505.31
2018-08-17T12:49:47.690Z,100496.08
2018-08-17T12:52:16.291Z,100485.94
2018-08-17T12:54:44.794Z,100492.05
2018-08-17T12:57:13.190Z,100490.77
2018-08-17T12:59:41.566Z,100490.80
2018-08-17T13:02:10.006Z,100485.20
2018-08-17T13:04:38.373Z,100489.62
2018-08-17T13:07:06.863Z,100492.87
2018-08-17T13:09:35.488Z,100490.16
2018-08-17T13:12:03.950Z,100497.03
2018-08-17T13:14:32.302Z,100495.69
2018-08-17T13:17:01.520Z,100505.83
2018-08-17T13:19:30.085Z,100509.64
2018-08-17T13:21:58.763Z,100508.66
2018-08-17T13:24:27.232Z,100510.38
2018-08-17T13:26:55.758Z,100507.87
2018-08-17T13:29:24.765Z,100499.66
2018-08-17T13:31:54.364Z,100500.05
2018-08-17T13:34:22.918Z,100508.47
2018-08-17T13:36:51.473Z,100506.52
2018-08-17T13:39:20.392Z,100513.03
2018-08-17T13:41:48.896Z,100512.09
2018-08-17T13:44:17.301Z,100506.81
2018-08-17T13:46:45.889Z,100510.04
2018-08-17T13:49:14.275Z,100509.64
2018-08-17T13:51:42.674Z,100516.88
2018-08-17T13:54:36.152Z,100521.31
2018-08-17T13:59:57.632Z,100531.34
2018-08-17T14:02:26.055Z,100528.34
2018-08-17T14:04:54.467Z,100533.72
2018-08-17T14:07:22.825Z,100533.23
2018-08-17T14:09:51.198Z,100543.33
2018-08-17T14:12:19.639Z,100537.59
2018-08-17T14:14:48.034Z,100540.91
2018-08-17T14:17:16.483Z,100541.00
2018-08-17T14:19:44.905Z,100547.32
2018-08-17T14:22:13.342Z,100549.28
2018-08-17T14:24:41.736Z,100558.43
2018-08-17T14:27:10.174Z,100549.52
2018-08-17T14:29:38.588Z,100553.77
2018-08-17T14:32:07.458Z,100556.77
2018-08-17T14:34:36.023Z,100560.16
2018-08-17T14:37:05.292Z,100562.32
2018-08-17T14:39:33.931Z,100562.77
2018-08-17T14:42:02.945Z,100563.14
2018-08-17T14:44:31.494Z,100567.34
2018-08-17T14:46:59.868Z,100565.30
2018-08-17T14:49:28.221Z,100573.30
2018-08-17T14:51:56.866Z,100573.88
2018-08-17T14:54:25.168Z,100573.54
2018-08-17T14:56:53.940Z,100573.41
2018-08-17T14:59:22.350Z,100578.06
2018-08-17T15:01:50.818Z,100574.11
2018-08-17T15:04:19.416Z,100580.84
2018-08-17T15:06:47.811Z,100581.68
2018-08-17T15:09:16.207Z,100582.14
2018-08-17T15:11:44.777Z,100589.52
2018-08-17T15:14:14.130Z,100580.00
2018-08-17T15:16:43.142Z,100594.48
2018-08-17T15:19:11.561Z,100583.72
2018-08-17T15:21:40.495Z,100580.06
2018-08-17T15:24:09.157Z,100579.34
2018-08-17T15:26:38.141Z,100585.89
2018-08-17T15:29:06.519Z,100586.48
2018-08-17T15:31:34.848Z,100595.16
2018-08-17T15:34:03.210Z,100592.75
2018-08-17T15:36:31.658Z,100590.23
2018-08-17T15:39:00.125Z,100585.38
2018-08-17T15:41:28.596Z,100584.89
2018-08-17T15:43:56.920Z,100590.13
2018-08-17T15:46:26.170Z,100600.30
2018-08-17T15:48:56.584Z,100590.70
2018-08-17T15:51:25.001Z,100594.83
2018-08-17T15:53:53.391Z,100594.20
2018-08-17T15:56:21.855Z,100595.12
2018-08-17T15:58:50.231Z,100602.25
2018-08-17T16:01:18.661Z,100608.50
2018-08-17T16:03:47.046Z,100602.19
2018-08-17T16:06:15.407Z,100603.84
2018-08-17T16:08:43.800Z,100607.77
2018-08-17T16:11:12.130Z,100607.42
2018-08-17T16:13:40.520Z,100611.88
2018-08-17T16:16:08.910Z,100606.69
2018-08-17T16:18:37.448Z,100611.95
2018-08-17T16:21:06.234Z,100604.61
2018-08-17T16:23:34.693Z,100619.56
2018-08-17T16:26:03.121Z,100623.90
2018-08-17T16:28:31.531Z,100622.27
2018-08-17T16:30:59.892Z,100623.55
2018-08-17T16:33:28.704Z,100620.52
2018-08-17T16:35:57.072Z,100624.31
2018-08-17T16:38:25.427Z,100633.94
2018-08-17T16:40:54.063Z,100634.92
2018-08-17T16:43:25.411Z,100633.73
2018-08-17T16:45:53.909Z,100634.08
2018-08-17T16:48:22.463Z,100638.81
2018-08-17T16:50:51.054Z,100636.58
2018-08-17T16:53:19.467Z,100640.16
2018-08-17T16:55:48.664Z,100639.96
2018-08-17T16:58:17.030Z,100645.00
2018-08-17T17:00:45.599Z,100637.84
2018-08-17T17:03:13.924Z,100642.78
2018-08-17T17:05:42.303Z,100638.88
2018-08-17T17:08:10.688Z,100639.45
2018-08-17T17:10:39.270Z,100646.76
2018-08-17T17:13:07.814Z,100639.58
2018-08-17T17:15:36.220Z,100637.92
2018-08-17T17:18:08.469Z,100640.63
2018-08-17T17:20:37.850Z,100640.09
2018-08-17T17:23:08.411Z,100637.88
2018-08-17T17:25:37.109Z,100639.98
2018-08-17T17:28:05.760Z,100632.89
2018-08-17T17:30:40.843Z,100635.80
2018-08-17T17:33:09.905Z,100638.58
2018-08-17T17:35:40.427Z,100631.31
2018-08-17T17:38:09.838Z,100642.14
2018-08-17T17:40:38.774Z,100639.97
2018-08-17T17:43:07.532Z,100642.15
2018-08-17T17:45:39.595Z,100641.80
2018-08-17T17:48:08.207Z,100651.97
2018-08-17T17:50:36.644Z,100654.10
2018-08-17T17:53:05.456Z,100658.67
2018-08-17T17:55:41.388Z,100660.27
2018-08-17T17:58:10.412Z,100663.14
2018-08-17T18:00:38.863Z,100669.49
2018-08-17T18:03:07.864Z,100670.02
2018-08-17T18:05:36.402Z,100672.36
2018-08-17T18:08:10.225Z,100673.97
2018-08-17T18:10:39.024Z,100668.01
2018-08-17T18:13:07.684Z,100668.13
2018-08-17T18:15:36.098Z,100669.05
2018-08-17T18:18:04.773Z,100672.03
2018-08-17T18:20:33.464Z,100671.50
2018-08-17T18:23:01.973Z,100677.36
2018-08-17T18:25:30.558Z,100672.06
2018-08-17T18:27:59.144Z,100678.66
2018-08-17T18:30:27.970Z,100681.95
2018-08-17T18:32:56.454Z,100678.78
2018-08-17T18:35:30.913Z,100682.30
2018-08-17T18:37:59.306Z,100685.13
2018-08-17T18:40:27.957Z,100695.16
2018-08-17T18:42:56.381Z,100693.64
2018-08-17T18:45:24.971Z,100698.88
2018-08-17T18:47:53.526Z,100708.08
2018-08-17T18:50:21.990Z,100709.49
2018-08-17T18:52:50.720Z,100716.18
2018-08-17T18:55:19.143Z,100719.91
2018-08-17T18:57:47.483Z,100728.28
2018-08-17T19:00:15.958Z,100734.80
2018-08-17T19:02:44.503Z,100739.66
2018-08-17T19:05:13.146Z,100742.63
2018-08-17T19:07:42.364Z,100747.17
2018-08-17T19:10:11.064Z,100758.16
2018-08-17T19:12:39.460Z,100757.88
2018-08-17T19:15:10.349Z,100760.28
2018-08-17T19:17:38.899Z,100764.47
2018-08-17T19:20:09.390Z,100775.33
2018-08-17T19:22:42.852Z,100776.27
2018-08-17T19:25:13.671Z,100781.28
2018-08-17T19:27:42.785Z,100785.34
2018-08-17T19:30:23.644Z,100787.58
2018-08-17T19:32:53.423Z,100798.23
2018-08-17T19:35:21.869Z,100798.89
2018-08-17T19:37:51.244Z,100806.16
2018-08-17T19:40:20.147Z,100804.33
2018-08-17T19:42:49.030Z,100809.23
2018-08-17T19:45:17.927Z,100807.44
2018-08-17T19:47:46.508Z,100810.04
2018-08-17T19:50:14.919Z,100809.55
2018-08-17T19:52:43.564Z,100806.91
2018-08-17T19:55:12.014Z,100811.73
2018-08-17T19:57:40.429Z,100817.04
2018-08-17T20:00:10.632Z,100807.22
2018-08-17T20:02:38.968Z,100809.61
2018-08-17T20:05:07.591Z,100813.05
2018-08-17T20:07:36.322Z,100814.70
2018-08-17T20:10:05.316Z,100811.81
2018-08-17T20:12:33.774Z,100820.92
2018-08-17T20:15:02.235Z,100821.25
2018-08-17T20:17:30.858Z,100830.00
2018-08-17T20:19:59.600Z,100818.08
2018-08-17T20:22:28.062Z,100827.18
2018-08-17T20:24:56.635Z,100819.27
2018-08-17T20:27:25.281Z,100823.38
2018-08-17T20:29:54.008Z,100822.63
2018-08-17T20:32:22.424Z,100824.57
2018-08-17T20:34:51.047Z,100825.20
2018-08-17T20:37:19.459Z,100817.48
2018-08-17T20:39:48.160Z,100821.78
2018-08-17T20:42:25.292Z,100822.13
2018-08-17T20:44:53.688Z,100814.13
2018-08-17T20:47:22.116Z,100821.47
2018-08-17T20:49:50.582Z,100821.39
2018-08-17T20:52:19.008Z,100818.27
2018-08-17T20:54:47.616Z,100820.72
2018-08-17T20:57:16.083Z,100822.17
2018-08-17T20:59:44.488Z,100821.95
2018-08-17T21:02:12.897Z,100827.22
2018-08-17T21:07:34.067Z,100828.59
2018-08-17T21:10:02.904Z,100839.39
2018-08-17T21:12:31.318Z,100837.50
2018-08-17T21:14:59.919Z,100843.06
2018-08-17T21:17:28.304Z,100842.37
2018-08-17T21:19:56.703Z,100851.09
2018-08-17T21:22:25.076Z,100848.73
2018-08-17T21:24:53.472Z,100848.50
2018-08-17T21:27:21.800Z,100850.86
2018-08-17T21:29:50.175Z,100856.52
2018-08-17T21:32:18.611Z,100857.48
2018-08-17T21:34:47.062Z,100860.25
2018-08-17T21:37:15.442Z,100862.01
2018-08-17T21:39:43.820Z,100862.67
2018-08-17T21:42:12.222Z,100854.37
2018-08-17T21:44:40.757Z,100866.86
2018-08-17T21:47:09.177Z,100864.40
2018-08-17T21:49:37.540Z,100862.25
2018-08-17T21:52:07.783Z,100861.08
2018-08-17T21:54:36.182Z,100860.77
2018-08-17T21:57:05.034Z,100859.78
2018-08-17T21:59:38.783Z,100860.84
2018-08-17T22:02:09.519Z,100872.69
2018-08-17T22:04:37.923Z,100876.05
2018-08-17T22:07:11.047Z,100881.24
2018-08-17T22:09:42.295Z,100873.80
2018-08-17T22:12:11.434Z,100880.23
2018-08-17T22:14:39.885Z,100885.86
2018-08-17T22:17:18.176Z,100882.33
2018-08-17T22:19:46.531Z,100887.73
2018-08-17T22:22:14.930Z,100888.48
2018-08-17T22:24:49.448Z,100893.80
2018-08-17T22:27:18.896Z,100897.34
2018-08-17T22:29:48.923Z,100904.73
2018-08-17T22:32:17.603Z,100911.93
2018-08-17T22:34:46.243Z,100912.93
2018-08-17T22:37:14.644Z,100912.77
2018-08-17T22:39:43.142Z,100907.38
2018-08-17T22:42:11.587Z,100914.06
2018-08-17T22:44:39.890Z,100909.45
2018-08-17T22:47:24.887Z,100910.03
2018-08-17T22:49:54.271Z,100910.12
2018-08-17T22:52:22.739Z,100910.88
2018-08-17T22:55:00.916Z,100914.36
2018-08-17T22:57:29.923Z,100920.99
2018-08-17T23:00:13.684Z,100921.97
2018-08-17T23:02:43.245Z,100921.83
2018-08-17T23:05:13.231Z,100923.06
2018-08-17T23:07:41.654Z,100919.84
2018-08-17T23:10:13.394Z,100928.45
2018-08-17T23:12:41.996Z,100924.09
2018-08-17T23:15:11.429Z,100920.81
2018-08-17T23:17:40.769Z,100924.48
2018-08-17T23:20:09.407Z,100922.29
2018-08-17T23:22:52.455Z,100926.77
2018-08-17T23:25:20.889Z,100927.92
2018-08-17T23:27:49.947Z,100928.52
2018-08-17T23:30:18.509Z,100932.46
2018-08-17T23:32:47.197Z,100925.26
2018-08-17T23:35:15.584Z,100931.36
2018-08-17T23:37:44.103Z,100926.38
2018-08-17T23:40:12.558Z,100933.73
2018-08-17T23:42:41.010Z,100931.36
2018-08-17T23:45:14.617Z,100938.73
2018-08-17T23:47:43.400Z,100936.38
2018-08-17T23:50:12.788Z,100937.11
2018-08-17T23:52:41.229Z,100930.09
2018-08-17T23:55:11.851Z,100933.02
2018-08-17T23:57:40.250Z,100933.48
